Gosforth, United Kingdom
Current Conditions -  °F | °C
As of 9:50 AM on Sunday 21 Dec 2014 (Local Time) from EGNT Reporting Station
Broken Clouds Broken Clouds  
Wind Chill: 43°   Ceiling: 2000
Heat Index: 48°   Visibility: 6mi
Dew Point: 41°   Wind: 13mph
Humidity: 76%   Direction: 230°SW
Pressure: 29.94"   Gusts: NA
Location:  55°N, 1.62°W
Report Text: EGNT 210950Z 23011KT 190V260 9999 BKN020 09/05 Q1014
Loading
Personal Weather Stations






























Interactive Weather Map New forecast layout! Learn more

10-Day Weather Forecast

Advertisements
Track Severe Weather on mobile